createdAt,value
2018-07-07T04:11:12.082Z,70.05
2018-07-07T04:11:37.580Z,70.15
2018-07-07T04:12:03.071Z,70.53
2018-07-07T04:12:28.559Z,70.53
2018-07-07T04:12:54.053Z,69.95
2018-07-07T04:13:19.559Z,70.47
2018-07-07T04:13:45.040Z,70.34
2018-07-07T04:14:10.556Z,70.05
2018-07-07T04:14:36.024Z,70.24
2018-07-07T04:15:01.524Z,70.34
2018-07-07T04:15:27.017Z,69.89
2018-07-07T04:15:52.504Z,70.66
2018-07-07T04:16:17.976Z,70.72
2018-07-07T04:16:43.471Z,70.47
2018-07-07T04:17:08.987Z,70.47
2018-07-07T04:17:34.513Z,70.37
2018-07-07T04:18:00.010Z,70.66
2018-07-07T04:18:25.500Z,70.56
2018-07-07T04:18:51.004Z,70.37
2018-07-07T04:19:16.487Z,70.47
2018-07-07T04:19:41.992Z,70.37
2018-07-07T04:20:07.476Z,70.47
2018-07-07T04:20:32.966Z,70.56
2018-07-07T04:20:58.432Z,70.47
2018-07-07T04:21:23.927Z,70.66
2018-07-07T04:21:49.439Z,70.56
2018-07-07T04:22:14.916Z,70.56
2018-07-07T04:22:40.415Z,70.85
2018-07-07T04:23:05.890Z,70.56
2018-07-07T04:23:31.350Z,70.66
2018-07-07T04:23:56.833Z,70.76
2018-07-07T04:24:22.326Z,70.47
2018-07-07T04:24:47.813Z,70.66
2018-07-07T04:25:13.307Z,70.66
2018-07-07T04:25:38.790Z,70.47
2018-07-07T04:26:04.260Z,70.18
2018-07-07T04:26:29.754Z,70.66
2018-07-07T04:26:55.241Z,70.47
2018-07-07T04:27:20.736Z,70.28
2018-07-07T04:27:46.223Z,70.56
2018-07-07T04:28:11.720Z,70.66
2018-07-07T04:28:37.216Z,70.37
2018-07-07T04:29:02.716Z,70.37
2018-07-07T04:29:28.388Z,70.76
2018-07-07T04:29:53.840Z,70.76
2018-07-07T04:30:19.270Z,70.28
2018-07-07T04:30:44.764Z,70.28
2018-07-07T04:31:10.278Z,70.56
2018-07-07T04:31:35.739Z,70.18
2018-07-07T04:32:01.251Z,70.47
2018-07-07T04:32:26.785Z,70.76
2018-07-07T04:32:52.301Z,70.56
2018-07-07T04:33:17.760Z,70.76
2018-07-07T04:34:21.338Z,70.56
2018-07-07T04:34:46.855Z,70.47
2018-07-07T04:35:12.358Z,70.37
2018-07-07T04:35:37.842Z,70.76
2018-07-07T04:36:03.352Z,70.85
2018-07-07T04:36:28.838Z,70.37
2018-07-07T04:36:54.305Z,70.47
2018-07-07T04:37:19.822Z,70.56
2018-07-07T04:37:45.305Z,70.47
2018-07-07T04:38:10.857Z,70.37
2018-07-07T04:38:36.377Z,70.37
2018-07-07T04:39:01.879Z,70.41
2018-07-07T04:39:27.360Z,70.6
2018-07-07T04:39:52.894Z,70.7
2018-07-07T04:40:18.394Z,70.12
2018-07-07T04:40:43.836Z,70.31
2018-07-07T04:41:09.315Z,70.31
2018-07-07T04:41:34.821Z,70.03
2018-07-07T04:42:00.332Z,69.83
2018-07-07T04:42:25.847Z,69.74
2018-07-07T04:42:51.349Z,70.12
2018-07-07T04:43:16.865Z,70.21
2018-07-07T04:43:42.349Z,69.74
2018-07-07T04:44:07.846Z,69.54
2018-07-07T04:44:33.351Z,69.45
2018-07-07T04:44:58.847Z,69.45
2018-07-07T04:45:24.326Z,69.07
2018-07-07T04:45:49.827Z,69.29
2018-07-07T04:46:15.314Z,69.1
2018-07-07T04:46:40.807Z,68.72
2018-07-07T04:47:06.291Z,68.72
2018-07-07T04:47:31.777Z,68.05
2018-07-07T04:47:57.276Z,68.18
2018-07-07T04:48:22.801Z,68.37
2018-07-07T04:48:48.307Z,67.12
2018-07-07T04:49:13.827Z,67.5
2018-07-07T04:49:39.382Z,67.89
2018-07-07T04:50:04.875Z,67.6
2018-07-07T04:51:13.578Z,66.86
2018-07-07T04:51:39.051Z,67.25
2018-07-07T04:52:04.538Z,66.58
2018-07-07T04:52:30.178Z,67.06
2018-07-07T04:52:55.531Z,66.58
2018-07-07T04:53:21.040Z,66.39
2018-07-07T04:53:46.537Z,66.29
2018-07-07T04:54:12.035Z,66.67
2018-07-07T04:54:37.510Z,65.91
2018-07-07T04:55:03.029Z,65.72
2018-07-07T04:55:28.597Z,65.81
2018-07-07T04:55:54.081Z,65.94
2018-07-07T04:56:19.540Z,65.81
2018-07-07T04:56:45.053Z,65.56
2018-07-07T04:57:10.578Z,65.84
2018-07-07T04:57:36.027Z,65.46
2018-07-07T04:58:01.511Z,65.65
2018-07-07T04:58:26.974Z,65.08
2018-07-07T04:58:52.486Z,64.89
2018-07-07T04:59:17.959Z,64.98
2018-07-07T04:59:43.405Z,65.08
2018-07-07T05:00:08.908Z,64.89
2018-07-07T05:00:34.475Z,64.4
2018-07-07T05:01:00.116Z,64.31
2018-07-07T05:01:25.600Z,64.59
2018-07-07T05:01:50.984Z,64.4
2018-07-07T05:02:16.479Z,64.4
2018-07-07T05:02:41.912Z,64.4
2018-07-07T05:03:07.427Z,64.5
2018-07-07T05:03:32.948Z,64.59
2018-07-07T05:03:58.467Z,64.25
2018-07-07T05:04:23.981Z,64.31
2018-07-07T05:04:49.470Z,64.05
2018-07-07T05:05:14.934Z,64.15
2018-07-07T05:05:40.438Z,64.34
2018-07-07T05:06:05.917Z,63.96
2018-07-07T05:06:31.455Z,63.96
2018-07-07T05:06:56.961Z,64.15
2018-07-07T05:07:22.492Z,64.25
2018-07-07T05:07:47.981Z,64.34
2018-07-07T05:08:13.504Z,64.15
2018-07-07T05:08:39.010Z,64.34
2018-07-07T05:09:04.513Z,64.15
2018-07-07T05:09:30.012Z,64.25
2018-07-07T05:09:55.495Z,64.34
2018-07-07T05:10:21.028Z,64.43
2018-07-07T05:10:46.513Z,64.15
2018-07-07T05:11:45.043Z,63.76
2018-07-07T05:12:10.544Z,63.48
2018-07-07T05:12:36.056Z,63.57
2018-07-07T05:13:01.536Z,63.57
2018-07-07T05:13:27.060Z,63.76
2018-07-07T05:13:52.561Z,63.48
2018-07-07T05:14:18.052Z,63.57
2018-07-07T05:14:43.545Z,63.76
2018-07-07T05:15:09.022Z,63.67
2018-07-07T05:15:34.576Z,63.48
2018-07-07T05:15:59.974Z,63.57
2018-07-07T05:16:25.493Z,63.76
2018-07-07T05:16:51.009Z,64.05
2018-07-07T05:17:16.558Z,63.67
2018-07-07T05:17:41.986Z,63.38
2018-07-07T05:18:07.496Z,63.38
2018-07-07T05:18:32.991Z,63.22
2018-07-07T05:18:58.472Z,63.51
2018-07-07T05:19:23.976Z,63.51
2018-07-07T05:19:49.492Z,63.6
2018-07-07T05:20:15.002Z,63.41
2018-07-07T05:20:40.482Z,63.22
2018-07-07T05:21:06.005Z,63.09
2018-07-07T05:21:31.465Z,63.32
2018-07-07T05:21:56.947Z,63.22
2018-07-07T05:22:22.459Z,63.02
2018-07-07T05:22:47.941Z,63.02
2018-07-07T05:23:13.408Z,62.93
2018-07-07T05:23:38.897Z,62.84
2018-07-07T05:24:04.382Z,63.57
2018-07-07T05:24:29.892Z,63.41
2018-07-07T05:24:55.359Z,63.51
2018-07-07T05:25:20.852Z,63.51
2018-07-07T05:25:46.378Z,63.6
2018-07-07T05:26:11.886Z,63.7
2018-07-07T05:26:37.374Z,63.6
2018-07-07T05:27:02.849Z,63.51
2018-07-07T05:27:28.353Z,63.6
2018-07-07T05:27:53.844Z,63.22
2018-07-07T05:28:19.323Z,63.51
2018-07-07T05:28:44.819Z,63.51
2018-07-07T05:29:10.309Z,63.41
2018-07-07T05:29:35.791Z,63.6
2018-07-07T05:30:01.309Z,63.51
2018-07-07T05:30:26.818Z,63.32
2018-07-07T05:30:52.319Z,63.41
2018-07-07T05:31:17.812Z,63.51
2018-07-07T05:31:43.343Z,63.51
2018-07-07T05:32:08.853Z,63.41
2018-07-07T05:32:34.302Z,63.02
2018-07-07T05:32:59.799Z,63.41
2018-07-07T05:33:25.287Z,63.22
2018-07-07T05:33:50.812Z,63.32
2018-07-07T05:34:16.304Z,63.12
2018-07-07T05:34:41.800Z,63.32
2018-07-07T05:35:07.268Z,63.32
2018-07-07T05:35:32.727Z,63.32
2018-07-07T05:35:58.256Z,63.41
2018-07-07T05:36:23.689Z,63.54
2018-07-07T05:36:49.178Z,63.32
2018-07-07T05:37:14.702Z,63.25
2018-07-07T05:37:40.170Z,63.25
2018-07-07T05:38:05.674Z,63.15
2018-07-07T05:38:31.180Z,63.25
2018-07-07T05:38:56.730Z,63.25
2018-07-07T05:39:22.202Z,63.35
2018-07-07T05:39:47.703Z,63.45
2018-07-07T05:40:13.359Z,62.84
2018-07-07T05:40:38.888Z,62.58
2018-07-07T05:41:04.524Z,63.15
2018-07-07T05:41:29.978Z,63.15
2018-07-07T05:41:55.484Z,63.06
2018-07-07T05:42:20.988Z,62.77
2018-07-07T05:42:46.474Z,62.96
2018-07-07T05:43:11.955Z,63.54
2018-07-07T05:43:37.450Z,63.45
2018-07-07T05:44:03.685Z,63.15
2018-07-07T05:44:28.463Z,63.15
2018-07-07T05:44:53.978Z,62.77
2018-07-07T05:45:19.513Z,62.77
2018-07-07T05:45:44.985Z,63.25
2018-07-07T05:46:10.478Z,62.68
2018-07-07T05:46:36.000Z,62.77
2018-07-07T05:47:44.713Z,62.77
2018-07-07T05:48:10.206Z,62.58
2018-07-07T05:48:35.803Z,62.96
2018-07-07T05:49:01.305Z,62.99
2018-07-07T05:49:26.797Z,62.87
2018-07-07T05:49:52.437Z,62.87
2018-07-07T05:50:17.852Z,62.99
2018-07-07T05:50:43.373Z,62.71
2018-07-07T05:51:08.865Z,62.71
2018-07-07T05:51:34.435Z,62.8
2018-07-07T05:51:59.976Z,62.8
2018-07-07T05:52:25.465Z,63.38
2018-07-07T05:53:38.769Z,62.71
2018-07-07T05:54:04.337Z,62.71
2018-07-07T05:54:29.962Z,62.61
2018-07-07T05:54:55.655Z,63.09
2018-07-07T05:56:04.307Z,62.61
2018-07-07T05:56:29.781Z,62.61
2018-07-07T05:56:55.250Z,62.71
2018-07-07T05:57:20.804Z,62.9
2018-07-07T05:57:46.264Z,62.45
2018-07-07T05:58:11.684Z,62.45
2018-07-07T05:58:37.221Z,62.35
2018-07-07T05:59:02.611Z,62.06
2018-07-07T05:59:28.068Z,62.06
2018-07-07T05:59:53.564Z,62.35
2018-07-07T06:00:19.053Z,62.26
2018-07-07T06:00:44.536Z,62.06
2018-07-07T06:01:09.964Z,62.26
2018-07-07T06:01:35.446Z,62.54
2018-07-07T06:02:01.013Z,62.83
2018-07-07T06:02:26.441Z,62.99
2018-07-07T06:02:51.939Z,62.64
2018-07-07T06:03:17.366Z,63.18
2018-07-07T06:03:42.805Z,63.51
2018-07-07T06:04:08.340Z,63.57
2018-07-07T06:04:33.750Z,63.31
2018-07-07T06:04:59.220Z,63.12
2018-07-07T06:05:24.728Z,62.74
2018-07-07T06:05:50.183Z,62.74
2018-07-07T06:06:15.663Z,62.74
2018-07-07T06:06:41.197Z,63.22
2018-07-07T06:07:06.661Z,63.51
2018-07-07T06:07:32.129Z,63.38
2018-07-07T06:07:57.610Z,63.31
2018-07-07T06:08:23.082Z,63.6
2018-07-07T06:08:48.512Z,63.31
2018-07-07T06:09:13.997Z,63.12
2018-07-07T06:09:39.475Z,63.31
2018-07-07T06:10:04.911Z,63.51
2018-07-07T06:10:30.379Z,62.83
2018-07-07T06:10:55.828Z,62.74
2018-07-07T06:11:21.312Z,62.83
2018-07-07T06:11:46.836Z,63.02
2018-07-07T06:12:12.321Z,62.83
2018-07-07T06:12:37.804Z,62.45
2018-07-07T06:13:03.334Z,62.74
2018-07-07T06:13:28.819Z,62.48
2018-07-07T06:13:54.290Z,62.09
2018-07-07T06:14:19.826Z,62.29
2018-07-07T06:14:45.261Z,62.09
2018-07-07T06:15:10.758Z,62.09
2018-07-07T06:16:04.202Z,61.04
2018-07-07T06:16:29.722Z,61.32
2018-07-07T06:16:55.217Z,61.22
2018-07-07T06:17:20.755Z,61.13
2018-07-07T06:17:46.226Z,61.42
2018-07-07T06:18:11.698Z,61.42
2018-07-07T06:18:37.230Z,61.52
2018-07-07T06:19:02.716Z,61.22
2018-07-07T06:19:28.230Z,61.61
2018-07-07T06:19:53.724Z,61.13
2018-07-07T06:20:19.219Z,61.22
2018-07-07T06:20:44.715Z,60.75
2018-07-07T06:21:10.266Z,61.13
2018-07-07T06:21:35.764Z,61.22
2018-07-07T06:22:01.270Z,60.94
2018-07-07T06:22:26.764Z,60.84
2018-07-07T06:22:52.524Z,61.32
2018-07-07T06:23:17.989Z,61.07
2018-07-07T06:23:43.441Z,60.94
2018-07-07T06:24:08.874Z,60.65
2018-07-07T06:24:34.350Z,60.55
2018-07-07T06:24:59.811Z,60.46
2018-07-07T06:25:25.237Z,59.78
2018-07-07T06:25:50.771Z,59.78
2018-07-07T06:26:16.178Z,59.88
2018-07-07T06:26:41.728Z,59.88
2018-07-07T06:27:07.188Z,60.07
2018-07-07T06:27:32.608Z,60.65
2018-07-07T06:27:58.080Z,60.65
2018-07-07T06:28:23.556Z,60.55
2018-07-07T06:28:49.026Z,60.55
2018-07-07T06:29:14.480Z,60.55
2018-07-07T06:29:39.973Z,60.75
2018-07-07T06:30:05.453Z,60.36
2018-07-07T06:30:30.955Z,61.04
2018-07-07T06:30:56.594Z,60.84
2018-07-07T06:32:00.247Z,60.94
2018-07-07T06:32:25.724Z,60.65
2018-07-07T06:32:51.190Z,60.55
2018-07-07T06:33:16.645Z,60.27
2018-07-07T06:33:42.108Z,59.78
2018-07-07T06:34:07.579Z,59.59
2018-07-07T06:34:33.107Z,59.49
2018-07-07T06:34:58.549Z,59.88
2018-07-07T06:35:23.989Z,59.69
2018-07-07T06:35:49.467Z,59.88
2018-07-07T06:36:14.921Z,59.69
2018-07-07T06:36:40.394Z,59.69
2018-07-07T06:37:05.892Z,60.07
2018-07-07T06:37:31.355Z,60.07
2018-07-07T06:37:56.825Z,60.65
2018-07-07T06:38:22.292Z,60.65
2018-07-07T06:38:47.763Z,60.07
2018-07-07T06:39:13.206Z,59.49
2018-07-07T06:39:38.667Z,59.78
2018-07-07T06:40:04.152Z,59.3
2018-07-07T06:40:29.603Z,59.78
2018-07-07T06:40:55.060Z,59.72
2018-07-07T06:41:20.539Z,59.2
2018-07-07T06:42:24.176Z,59.59
2018-07-07T06:42:49.652Z,59.11
2018-07-07T06:43:15.110Z,59.4
2018-07-07T06:43:40.647Z,59.91
2018-07-07T06:44:06.092Z,59.72
2018-07-07T06:44:31.595Z,59.23
2018-07-07T06:44:57.153Z,59.52
2018-07-07T06:45:22.654Z,59.14
2018-07-07T06:45:48.109Z,59.04
2018-07-07T06:46:13.655Z,58.37
2018-07-07T06:47:17.286Z,58.85
2018-07-07T06:47:42.786Z,58.11
2018-07-07T06:48:08.270Z,58.59
2018-07-07T06:48:33.804Z,58.69
2018-07-07T06:48:59.332Z,58.69
2018-07-07T06:49:24.817Z,58.3
2018-07-07T06:49:50.256Z,58.78
2018-07-07T06:50:15.753Z,57.62
2018-07-07T06:50:41.192Z,57.72
2018-07-07T06:51:06.656Z,57.62
2018-07-07T06:51:32.110Z,57.75
2018-07-07T06:51:57.624Z,57.75
2018-07-07T06:52:23.092Z,57.85
2018-07-07T06:52:48.526Z,57.94
2018-07-07T06:53:13.955Z,57.85
2018-07-07T06:53:39.493Z,57.56
2018-07-07T06:54:05.047Z,57.78
2018-07-07T06:54:30.414Z,56.72
2018-07-07T06:54:55.899Z,56.62
2018-07-07T06:55:21.329Z,56.24
2018-07-07T06:55:46.781Z,56.81
2018-07-07T06:56:12.296Z,56.91
2018-07-07T06:56:37.737Z,56.65
2018-07-07T06:57:03.193Z,56.07
2018-07-07T06:57:28.696Z,56.07
2018-07-07T06:57:54.086Z,56.46
2018-07-07T06:58:19.571Z,56.65
2018-07-07T06:58:45.076Z,56.16
2018-07-07T06:59:10.542Z,55.98
2018-07-07T06:59:36.026Z,55.98
2018-07-07T07:00:01.532Z,55.2
2018-07-07T07:00:26.932Z,54.84
2018-07-07T07:00:52.377Z,55.2
2018-07-07T07:01:17.835Z,54.75
2018-07-07T07:01:43.283Z,54.84
2018-07-07T07:02:08.775Z,55.13
2018-07-07T07:02:34.217Z,54.65
2018-07-07T07:02:59.711Z,54.65
2018-07-07T07:03:25.176Z,54.17
2018-07-07T07:03:50.603Z,54.17
2018-07-07T07:04:16.061Z,54.17
2018-07-07T07:04:41.612Z,53.78
2018-07-07T07:05:07.103Z,54.27
2018-07-07T07:05:32.596Z,54.27
2018-07-07T07:05:58.044Z,54.27
2018-07-07T07:06:23.573Z,54.36
2018-07-07T07:06:48.983Z,54.46
2018-07-07T07:07:14.432Z,54.65
2018-07-07T07:07:39.918Z,54.29
2018-07-07T07:08:05.378Z,53.91
2018-07-07T07:08:30.819Z,54.29
2018-07-07T07:08:56.289Z,54.19
2018-07-07T07:09:21.750Z,54.29
2018-07-07T07:09:47.200Z,54.29
2018-07-07T07:10:12.709Z,54.49
2018-07-07T07:10:38.258Z,54.39
2018-07-07T07:11:03.712Z,54.49
2018-07-07T07:11:29.163Z,54.39
2018-07-07T07:11:54.646Z,53.93
2018-07-07T07:12:20.090Z,53.06
2018-07-07T07:12:45.573Z,53.06
2018-07-07T07:13:11.048Z,52.77
2018-07-07T07:13:36.547Z,52.94
2018-07-07T07:14:01.994Z,52.67
2018-07-07T07:14:27.462Z,52.29
2018-07-07T07:14:52.944Z,51.9
2018-07-07T07:15:18.485Z,51.68
2018-07-07T07:15:43.981Z,52.09
2018-07-07T07:16:09.435Z,51.78
2018-07-07T07:16:34.880Z,52.55
2018-07-07T07:17:00.381Z,52.65
2018-07-07T07:17:25.823Z,52.45
2018-07-07T07:17:51.314Z,52.75
2018-07-07T07:18:16.722Z,52.84
2018-07-07T07:18:42.217Z,52.45
2018-07-07T07:19:07.703Z,52.55
2018-07-07T07:19:33.190Z,52.55
2018-07-07T07:19:58.617Z,52.55
2018-07-07T07:20:24.105Z,52.07
2018-07-07T07:20:49.609Z,52.65
2018-07-07T07:21:15.036Z,52.75
2018-07-07T07:21:40.485Z,52.36
2018-07-07T07:22:05.961Z,52.75
2018-07-07T07:22:31.413Z,52.26
2018-07-07T07:22:56.906Z,52.65
2018-07-07T07:23:22.360Z,52.75
2018-07-07T07:23:47.808Z,52.43
2018-07-07T07:24:13.304Z,53.03
2018-07-07T07:24:38.797Z,53.03
2018-07-07T07:25:04.225Z,52.84
2018-07-07T07:25:29.702Z,52.55
2018-07-07T07:25:55.191Z,52.75
2018-07-07T07:26:20.639Z,53.23
2018-07-07T07:26:46.082Z,53.13
2018-07-07T07:27:11.560Z,53.33
2018-07-07T07:27:37.001Z,53.52
2018-07-07T07:28:02.481Z,53.42
2018-07-07T07:28:27.954Z,53.23
2018-07-07T07:28:53.426Z,52.45
2018-07-07T07:29:18.884Z,52.75
2018-07-07T07:29:44.333Z,52.36
2018-07-07T07:30:09.798Z,52.75
2018-07-07T07:30:35.284Z,52.26
2018-07-07T07:31:00.758Z,51.78
2018-07-07T07:31:26.230Z,51.78
2018-07-07T07:31:51.743Z,51.59
2018-07-07T07:32:17.211Z,51.2
2018-07-07T07:32:42.672Z,51.49
2018-07-07T07:33:08.221Z,50.81
2018-07-07T07:33:33.617Z,50.23
2018-07-07T07:33:59.113Z,49.75
2018-07-07T07:34:24.592Z,50.13
2018-07-07T07:34:50.067Z,50.13
2018-07-07T07:35:15.556Z,49.37
2018-07-07T07:35:41.031Z,49.07
2018-07-07T07:36:06.528Z,49.65
2018-07-07T07:36:31.979Z,49.55
2018-07-07T07:36:57.491Z,50.13
2018-07-07T07:37:22.952Z,50.13
2018-07-07T07:37:48.407Z,50.13
2018-07-07T07:38:13.879Z,49.95
2018-07-07T07:38:39.349Z,49.55
2018-07-07T07:39:04.806Z,49.55
2018-07-07T07:39:30.451Z,49.55
2018-07-07T07:39:55.938Z,49.46
2018-07-07T07:40:21.464Z,49.55
2018-07-07T07:40:46.965Z,49.75
2018-07-07T07:41:12.405Z,49.95
2018-07-07T07:41:37.887Z,49.85
2018-07-07T07:42:03.392Z,50.62
2018-07-07T07:42:28.884Z,50.71
2018-07-07T07:42:54.359Z,50.81
2018-07-07T07:43:19.872Z,50.91
2018-07-07T07:43:45.374Z,51.01
2018-07-07T07:44:10.852Z,50.81
2018-07-07T07:44:36.340Z,51.1
2018-07-07T07:45:01.848Z,51.29
2018-07-07T07:45:27.481Z,51.2
2018-07-07T07:45:52.859Z,50.91
2018-07-07T07:46:18.339Z,51.1
2018-07-07T07:47:16.858Z,50.23
2018-07-07T07:47:42.360Z,49.75
2018-07-07T07:48:07.865Z,49.55
2018-07-07T07:48:33.440Z,49.46
2018-07-07T07:48:58.863Z,48.59
2018-07-07T07:49:24.346Z,48.39
2018-07-07T07:49:49.785Z,48.11
2018-07-07T07:50:15.258Z,47.43
2018-07-07T07:50:40.731Z,46.85
2018-07-07T07:51:06.252Z,46.66
2018-07-07T07:51:31.743Z,46.37
2018-07-07T07:51:57.243Z,47.14
2018-07-07T07:52:22.743Z,47.14
2018-07-07T07:52:48.279Z,46.66
2018-07-07T07:53:13.705Z,46.78
2018-07-07T07:53:39.192Z,46.58
2018-07-07T07:54:04.706Z,46.1
2018-07-07T07:54:30.167Z,46
2018-07-07T07:54:55.654Z,46.3
2018-07-07T07:55:21.139Z,46.68
2018-07-07T07:55:46.790Z,46.78
2018-07-07T07:56:12.218Z,46.78
2018-07-07T07:56:37.663Z,46.88
2018-07-07T07:57:03.141Z,47.26
2018-07-07T07:57:28.609Z,47.09
2018-07-07T07:57:54.094Z,47.67
2018-07-07T07:58:19.581Z,47.09
2018-07-07T07:58:45.043Z,47.09
2018-07-07T07:59:10.526Z,46.9
2018-07-07T07:59:35.993Z,47.28
2018-07-07T08:00:01.449Z,47.31
2018-07-07T08:00:26.943Z,47.21
2018-07-07T08:00:52.372Z,47.31
2018-07-07T08:01:17.860Z,47.21
2018-07-07T08:01:43.306Z,47.11
2018-07-07T08:02:08.824Z,47.21
2018-07-07T08:02:34.242Z,47.21
2018-07-07T08:02:59.703Z,46.92
2018-07-07T08:03:25.167Z,47.21
2018-07-07T08:03:50.620Z,45.98
2018-07-07T08:04:16.109Z,45.95
2018-07-07T08:04:41.624Z,46.94
2018-07-07T08:05:55.365Z,45.4
2018-07-07T08:06:20.851Z,45.37
2018-07-07T08:06:46.379Z,45.01
2018-07-07T08:07:11.824Z,44.91
2018-07-07T08:07:37.309Z,45.01
2018-07-07T08:08:02.808Z,45.49
2018-07-07T08:08:28.270Z,44.91
2018-07-07T08:08:53.735Z,44.33
2018-07-07T08:09:47.174Z,45.3
2018-07-07T08:10:12.672Z,45.49
2018-07-07T08:10:38.255Z,45.76
2018-07-07T08:11:03.735Z,46.26
2018-07-07T08:11:29.199Z,46.56
2018-07-07T08:11:54.671Z,46.56
2018-07-07T08:12:20.125Z,46.56
2018-07-07T08:12:45.599Z,46.17
2018-07-07T08:13:11.187Z,46.56
2018-07-07T08:13:36.614Z,45.88
2018-07-07T08:14:02.146Z,46.08
2018-07-07T08:14:27.562Z,46.36
2018-07-07T08:14:53.063Z,46.08
2018-07-07T08:15:18.689Z,46
2018-07-07T08:15:44.129Z,45.98
2018-07-07T08:16:09.626Z,45.61
2018-07-07T08:16:35.200Z,45.71
2018-07-07T08:17:00.659Z,45.71
2018-07-07T08:17:26.383Z,46.19
2018-07-07T08:17:51.828Z,46.19
2018-07-07T08:18:17.336Z,45.81
2018-07-07T08:18:42.865Z,45.42
2018-07-07T08:19:08.352Z,45.42
2018-07-07T08:19:33.904Z,45.03
2018-07-07T08:19:59.560Z,45.03
2018-07-07T08:20:25.071Z,45.22
2018-07-07T08:20:50.511Z,45.32
2018-07-07T08:21:15.984Z,45.22
2018-07-07T08:21:41.418Z,45.22
2018-07-07T08:22:07.232Z,44.86
2018-07-07T08:22:32.666Z,44.45
2018-07-07T08:22:59.009Z,44.35
2018-07-07T08:23:23.737Z,43.87
2018-07-07T08:23:49.196Z,43.58
2018-07-07T08:24:14.659Z,43.38
2018-07-07T08:24:40.221Z,43.38
2018-07-07T08:25:05.612Z,43.58
2018-07-07T08:25:31.085Z,43.58
2018-07-07T08:25:56.527Z,43.48
2018-07-07T08:26:22.009Z,43.77
2018-07-07T08:26:47.732Z,43.77
2018-07-07T08:27:12.998Z,44.06
2018-07-07T08:27:38.552Z,44.45
2018-07-07T08:28:04.011Z,44.26
2018-07-07T08:28:29.527Z,43.87
2018-07-07T08:28:55.018Z,43.68
2018-07-07T08:29:20.453Z,43.29
2018-07-07T08:29:45.926Z,43.48
2018-07-07T08:30:11.429Z,43.38
2018-07-07T08:30:36.921Z,43.58
2018-07-07T08:31:02.398Z,43.77
2018-07-07T08:31:27.881Z,43.38
2018-07-07T08:31:53.356Z,43.68
2018-07-07T08:32:18.785Z,43.48
2018-07-07T08:32:44.241Z,43.48
2018-07-07T08:33:09.701Z,44.06
2018-07-07T08:33:35.207Z,43.77
2018-07-07T08:34:00.725Z,44.26
2018-07-07T08:34:26.214Z,43.99
2018-07-07T08:34:51.696Z,43.5
2018-07-07T08:35:17.417Z,43.79
2018-07-07T08:35:42.860Z,43.6
2018-07-07T08:36:08.337Z,43.5
2018-07-07T08:36:33.855Z,43.41
2018-07-07T08:36:59.300Z,43.79
2018-07-07T08:37:24.793Z,42.92
2018-07-07T08:37:50.222Z,43.79
2018-07-07T08:38:15.768Z,43.41
2018-07-07T08:38:41.233Z,43.41
2018-07-07T08:39:06.739Z,42.92
2018-07-07T08:39:32.205Z,42.72
2018-07-07T08:39:57.643Z,43.5
2018-07-07T08:40:23.150Z,43.5
2018-07-07T08:40:48.644Z,43.79
2018-07-07T08:41:14.086Z,43.13
2018-07-07T08:41:39.693Z,42.75
2018-07-07T08:42:05.032Z,42.85
2018-07-07T08:42:30.439Z,42.36
2018-07-07T08:42:56.243Z,42.17
2018-07-07T08:43:21.582Z,42.17
2018-07-07T08:43:47.042Z,42.55
2018-07-07T08:44:12.489Z,41.49
2018-07-07T08:44:37.969Z,41.49
2018-07-07T08:45:03.446Z,41.97
2018-07-07T08:45:28.913Z,41.97
2018-07-07T08:45:54.416Z,41.88
2018-07-07T08:46:58.034Z,41.1
2018-07-07T08:47:23.851Z,41.2
2018-07-07T08:47:49.270Z,41.1
2018-07-07T08:48:14.845Z,40.71
2018-07-07T08:48:40.362Z,41.31
2018-07-07T08:49:05.823Z,40.91
2018-07-07T08:49:31.345Z,41
2018-07-07T08:49:56.826Z,40.71
2018-07-07T08:50:22.318Z,40.33
2018-07-07T08:50:47.811Z,40.13
2018-07-07T08:51:13.383Z,41
2018-07-07T08:51:38.866Z,40.71
2018-07-07T08:52:04.299Z,41.02
2018-07-07T08:52:30.274Z,41.31
2018-07-07T08:52:55.755Z,41.2
2018-07-07T08:53:21.229Z,41.39
2018-07-07T08:53:46.721Z,41.41
2018-07-07T08:54:12.285Z,42.67
2018-07-07T08:54:37.748Z,42.09
2018-07-07T08:55:03.276Z,41.89
2018-07-07T08:55:28.799Z,41.22
2018-07-07T08:55:54.279Z,41.31
2018-07-07T08:56:19.748Z,40.85
2018-07-07T08:56:45.215Z,40.85
2018-07-07T08:57:10.731Z,40.15
2018-07-07T08:57:36.213Z,40.05
2018-07-07T08:58:01.706Z,40.36
2018-07-07T08:58:27.203Z,40.05
2018-07-07T08:58:52.682Z,40.08
2018-07-07T08:59:18.201Z,40.08
2018-07-07T08:59:43.691Z,40.26
2018-07-07T09:00:09.206Z,40.56
2018-07-07T09:00:34.703Z,40.36
2018-07-07T09:01:00.202Z,40.17
2018-07-07T09:01:25.685Z,40.46
2018-07-07T09:01:51.165Z,40.75
2018-07-07T09:02:16.677Z,40.56
2018-07-07T09:02:42.186Z,40.08
2018-07-07T09:03:07.668Z,40.08
2018-07-07T09:03:33.167Z,40.17
2018-07-07T09:03:58.672Z,40.09
2018-07-07T09:04:24.176Z,40.08
2018-07-07T09:04:49.692Z,40.09
2018-07-07T09:05:15.171Z,39.9
2018-07-07T09:05:40.661Z,39.88
2018-07-07T09:06:06.175Z,39.51
2018-07-07T09:06:31.649Z,39.7
2018-07-07T09:07:35.327Z,39.61
2018-07-07T09:08:00.784Z,40.09
2018-07-07T09:08:26.326Z,40
2018-07-07T09:08:51.784Z,39.61
2018-07-07T09:09:17.289Z,39.8
2018-07-07T09:09:42.783Z,39.8
2018-07-07T09:10:08.310Z,39.8
2018-07-07T09:10:33.826Z,38.93
2018-07-07T09:10:59.306Z,38.93
2018-07-07T09:11:24.831Z,38.93
2018-07-07T09:11:50.344Z,38.83
2018-07-07T09:12:15.850Z,38.73
2018-07-07T09:12:41.460Z,38.25
2018-07-07T09:13:06.949Z,38.64
2018-07-07T09:13:32.483Z,38.64
2018-07-07T09:13:57.956Z,38.83
2018-07-07T09:14:23.465Z,39.12
2018-07-07T09:14:48.946Z,38.83
2018-07-07T09:15:14.450Z,39.12
2018-07-07T09:15:40.253Z,39.41
2018-07-07T09:16:05.735Z,39.32
2018-07-07T09:16:31.200Z,39.03
2018-07-07T09:16:56.686Z,39.22
2018-07-07T09:17:22.155Z,39.43
2018-07-07T09:17:47.629Z,39.32
2018-07-07T09:18:13.109Z,39.03
2018-07-07T09:18:38.647Z,39.03
2018-07-07T09:19:04.074Z,39.04
2018-07-07T09:19:29.541Z,39.12
2018-07-07T09:19:55.037Z,38.75
2018-07-07T09:20:58.672Z,38.65
2018-07-07T09:21:24.177Z,39.14
2018-07-07T09:21:49.662Z,38.75
2018-07-07T09:22:15.148Z,38.85
2018-07-07T09:22:40.649Z,38.37
2018-07-07T09:23:06.155Z,38.17
2018-07-07T09:23:31.633Z,38.37
2018-07-07T09:23:57.126Z,37.98
2018-07-07T09:24:22.690Z,37.68
2018-07-07T09:24:48.172Z,37.98
2018-07-07T09:25:13.668Z,38.17
2018-07-07T09:25:39.192Z,37.88
2018-07-07T09:26:04.691Z,37.78
2018-07-07T09:26:30.172Z,38.17
2018-07-07T09:26:55.645Z,38.37
2018-07-07T09:27:21.202Z,38.27
2018-07-07T09:27:46.659Z,38.27
2018-07-07T09:28:12.149Z,37.59
2018-07-07T09:28:37.670Z,37.98
2018-07-07T09:29:03.182Z,38.17
2018-07-07T09:29:28.683Z,38.56
2018-07-07T09:29:54.172Z,38.07
2018-07-07T09:30:19.639Z,37.39
2018-07-07T09:30:45.156Z,37.68
2018-07-07T09:31:10.667Z,37.88
2018-07-07T09:31:36.154Z,38.37
2018-07-07T09:32:01.674Z,38.27
2018-07-07T09:32:27.163Z,38.37
2018-07-07T09:32:52.667Z,38.46
2018-07-07T09:33:18.150Z,37.49
2018-07-07T09:33:43.647Z,37.1
2018-07-07T09:34:09.169Z,37.2
2018-07-07T09:34:34.648Z,37.88
2018-07-07T09:35:00.171Z,37.57
2018-07-07T09:35:25.646Z,37.78
2018-07-07T09:35:51.127Z,38.37
2018-07-07T09:36:16.599Z,37.59
2018-07-07T09:36:42.103Z,37.49
2018-07-07T09:37:07.618Z,37.49
2018-07-07T09:37:33.099Z,38.27
2018-07-07T09:37:58.601Z,38.27
2018-07-07T09:38:24.074Z,38.75
2018-07-07T09:38:49.632Z,37.47
2018-07-07T09:39:15.121Z,37.18
2018-07-07T09:39:40.612Z,37.18
2018-07-07T09:40:06.078Z,37.08
2018-07-07T09:40:31.603Z,37.28
2018-07-07T09:40:57.097Z,37.86
2018-07-07T09:41:22.559Z,38.25
2018-07-07T09:41:48.085Z,38.83
2018-07-07T09:42:13.578Z,38.73
2018-07-07T09:42:39.042Z,38.85
2018-07-07T09:43:04.692Z,38.95
2018-07-07T09:43:30.167Z,38.75
2018-07-07T09:43:55.671Z,38.75
2018-07-07T09:44:21.149Z,39.12
2018-07-07T09:44:46.587Z,39.14
2018-07-07T09:45:12.039Z,39.14
2018-07-07T09:45:37.560Z,38.27
2018-07-07T09:46:41.109Z,38.17
2018-07-07T09:47:06.587Z,37.88
2018-07-07T09:47:32.076Z,38.37
2018-07-07T09:47:57.559Z,39.03
2018-07-07T09:48:23.030Z,39.24
2018-07-07T09:48:48.469Z,38.95
2018-07-07T09:49:13.935Z,38.75
2018-07-07T09:49:39.416Z,38.75
2018-07-07T09:50:04.876Z,38.37
2018-07-07T09:50:30.340Z,38.37
2018-07-07T09:50:55.801Z,37.88